createdAt,value
2018-07-14T00:01:21.520Z,57.80
2018-07-14T00:03:49.844Z,58.30
2018-07-14T00:06:18.446Z,58.30
2018-07-14T00:08:47.063Z,58.40
2018-07-14T00:11:15.500Z,58.30
2018-07-14T00:13:45.066Z,58.30
2018-07-14T00:16:13.690Z,58.90
2018-07-14T00:18:42.106Z,58.50
2018-07-14T00:21:10.690Z,58.60
2018-07-14T00:23:38.985Z,58.80
2018-07-14T00:26:07.944Z,58.80
2018-07-14T00:28:36.271Z,58.70
2018-07-14T00:31:04.707Z,59.00
2018-07-14T00:33:33.083Z,59.00
2018-07-14T00:36:01.463Z,59.00
2018-07-14T00:38:29.861Z,59.20
2018-07-14T00:40:58.135Z,59.20
2018-07-14T00:43:26.855Z,59.30
2018-07-14T00:45:55.119Z,58.90
2018-07-14T00:48:23.498Z,59.00
2018-07-14T00:50:51.908Z,59.00
2018-07-14T00:53:20.229Z,59.00
2018-07-14T00:55:48.578Z,59.00
2018-07-14T00:58:16.994Z,59.00
2018-07-14T01:00:45.244Z,59.10
2018-07-14T01:03:14.262Z,59.10
2018-07-14T01:05:42.528Z,59.20
2018-07-14T01:08:10.819Z,59.40
2018-07-14T01:10:39.094Z,59.40
2018-07-14T01:13:07.374Z,59.50
2018-07-14T01:15:35.689Z,59.50
2018-07-14T01:20:31.935Z,59.60
2018-07-14T01:23:00.228Z,59.40
2018-07-14T01:25:28.474Z,59.40
2018-07-14T01:27:56.746Z,59.80
2018-07-14T01:30:24.995Z,60.00
2018-07-14T01:32:53.227Z,60.50
2018-07-14T01:35:21.553Z,60.40
2018-07-14T01:37:49.814Z,60.30
2018-07-14T01:40:18.166Z,60.50
2018-07-14T01:42:46.439Z,60.50
2018-07-14T01:47:43.883Z,60.50
2018-07-14T01:50:12.274Z,60.30
2018-07-14T01:52:40.890Z,60.60
2018-07-14T01:55:10.647Z,60.20
2018-07-14T01:57:38.894Z,60.50
2018-07-14T02:00:07.873Z,60.80
2018-07-14T02:02:36.124Z,60.60
2018-07-14T02:05:04.497Z,60.80
2018-07-14T02:07:32.792Z,60.90
2018-07-14T02:10:01.079Z,60.90
2018-07-14T02:12:29.389Z,60.90
2018-07-14T02:14:57.718Z,61.10
2018-07-14T02:17:26.021Z,62.10
2018-07-14T02:19:54.339Z,62.80
2018-07-14T02:22:22.607Z,62.50
2018-07-14T02:24:50.967Z,63.20
2018-07-14T02:27:19.233Z,62.70
2018-07-14T02:29:47.544Z,62.70
2018-07-14T02:32:15.855Z,62.10
2018-07-14T02:37:12.113Z,62.30
2018-07-14T02:39:40.400Z,61.80
2018-07-14T02:42:08.662Z,61.70
2018-07-14T02:44:37.001Z,61.60
2018-07-14T02:47:05.473Z,61.80
2018-07-14T02:49:33.754Z,61.90
2018-07-14T02:52:02.968Z,61.90
2018-07-14T02:54:31.355Z,62.10
2018-07-14T02:56:59.730Z,62.10
2018-07-14T02:59:27.971Z,62.20
2018-07-14T03:01:56.243Z,61.90
2018-07-14T03:04:24.504Z,61.90
2018-07-14T03:06:52.910Z,62.10
2018-07-14T03:09:21.228Z,62.00
2018-07-14T03:11:49.511Z,61.90
2018-07-14T03:14:17.849Z,62.10
2018-07-14T03:16:46.105Z,62.30
2018-07-14T03:19:14.577Z,62.10
2018-07-14T03:21:42.864Z,62.00
2018-07-14T03:24:11.070Z,62.20
2018-07-14T03:26:39.373Z,62.80
2018-07-14T03:31:35.699Z,61.70
2018-07-14T03:34:04.951Z,61.50
2018-07-14T03:36:33.273Z,62.20
2018-07-14T03:39:01.542Z,63.10
2018-07-14T03:41:29.850Z,63.50
2018-07-14T03:43:58.160Z,63.60
2018-07-14T03:46:26.464Z,63.90
2018-07-14T03:48:54.775Z,63.50
2018-07-14T03:51:23.035Z,63.30
2018-07-14T03:53:51.305Z,63.60
2018-07-14T03:56:19.617Z,63.80
2018-07-14T03:58:47.898Z,63.90
2018-07-14T04:01:16.173Z,64.10
2018-07-14T04:03:44.481Z,64.10
2018-07-14T04:06:12.708Z,64.20
2018-07-14T04:08:41.001Z,64.10
2018-07-14T04:11:09.371Z,63.90
2018-07-14T04:13:37.649Z,64.60
2018-07-14T04:16:07.721Z,64.90
2018-07-14T04:18:36.002Z,64.60
2018-07-14T04:21:04.309Z,65.10
2018-07-14T04:23:32.606Z,65.60
2018-07-14T04:26:00.893Z,65.60
2018-07-14T04:28:29.200Z,65.90
2018-07-14T04:30:57.502Z,65.90
2018-07-14T04:33:25.835Z,65.90
2018-07-14T04:35:54.074Z,65.40
2018-07-14T04:38:22.372Z,65.40
2018-07-14T04:43:18.623Z,65.60
2018-07-14T04:45:46.944Z,65.60
2018-07-14T04:48:15.222Z,65.60
2018-07-14T04:50:44.366Z,65.60
2018-07-14T04:53:12.719Z,65.40
2018-07-14T04:55:41.154Z,65.60
2018-07-14T04:58:09.598Z,65.70
2018-07-14T05:00:37.996Z,65.60
2018-07-14T05:03:06.524Z,65.90
2018-07-14T05:08:03.697Z,65.60
2018-07-14T05:13:00.239Z,65.60
2018-07-14T05:15:28.528Z,65.90
2018-07-14T05:17:56.800Z,65.90
2018-07-14T05:20:25.117Z,65.80
2018-07-14T05:22:53.476Z,65.60
2018-07-14T05:25:21.753Z,65.60
2018-07-14T05:27:50.096Z,65.70
2018-07-14T05:30:18.414Z,65.90
2018-07-14T05:32:46.769Z,65.90
2018-07-14T05:35:15.145Z,66.00
2018-07-14T05:37:43.517Z,65.60
2018-07-14T05:40:11.870Z,65.40
2018-07-14T05:42:40.120Z,65.20
2018-07-14T05:45:08.455Z,65.20
2018-07-14T05:47:37.525Z,65.50
2018-07-14T05:50:06.411Z,65.70
2018-07-14T05:52:34.731Z,65.40
2018-07-14T05:55:03.516Z,65.30
2018-07-14T05:57:31.809Z,65.10
2018-07-14T06:00:00.145Z,64.40
2018-07-14T06:02:28.481Z,64.70
2018-07-14T06:04:56.781Z,64.40
2018-07-14T06:07:25.007Z,63.80
2018-07-14T06:09:53.452Z,63.70
2018-07-14T06:12:21.750Z,62.70
2018-07-14T06:14:50.087Z,62.40
2018-07-14T06:17:18.386Z,61.50
2018-07-14T06:19:46.630Z,60.30
2018-07-14T06:22:14.949Z,59.00
2018-07-14T06:24:43.308Z,57.30
2018-07-14T06:27:11.563Z,57.10
2018-07-14T06:29:39.850Z,57.30
2018-07-14T06:32:08.195Z,56.40
2018-07-14T06:34:36.439Z,56.20
2018-07-14T06:37:05.845Z,56.30
2018-07-14T06:39:34.192Z,56.00
2018-07-14T06:42:02.448Z,55.40
2018-07-14T06:44:30.826Z,54.90
2018-07-14T06:46:59.075Z,54.90
2018-07-14T06:49:27.414Z,55.10
2018-07-14T06:51:55.739Z,54.30
2018-07-14T06:54:24.062Z,54.40
2018-07-14T06:56:52.315Z,53.80
2018-07-14T06:59:20.625Z,54.30
2018-07-14T07:01:48.914Z,54.70
2018-07-14T07:04:17.149Z,53.30
2018-07-14T07:06:45.400Z,53.30
2018-07-14T07:09:13.842Z,53.50
2018-07-14T07:11:42.142Z,52.50
2018-07-14T07:14:10.978Z,52.10
2018-07-14T07:16:39.177Z,52.00
2018-07-14T07:19:07.482Z,52.40
2018-07-14T07:21:35.809Z,51.30
2018-07-14T07:24:04.065Z,50.70
2018-07-14T07:26:32.366Z,50.70
2018-07-14T07:29:00.620Z,50.20
2018-07-14T07:31:28.865Z,49.90
2018-07-14T07:33:57.112Z,50.00
2018-07-14T07:36:26.377Z,50.00
2018-07-14T07:38:54.674Z,48.30
2018-07-14T07:41:22.951Z,47.90
2018-07-14T07:43:51.369Z,48.00
2018-07-14T07:46:19.631Z,47.60
2018-07-14T07:48:47.904Z,47.30
2018-07-14T07:51:16.367Z,47.20
2018-07-14T07:56:12.830Z,47.30
2018-07-14T07:58:41.359Z,47.80
2018-07-14T08:01:09.749Z,48.70
2018-07-14T08:03:38.178Z,47.70
2018-07-14T08:08:34.605Z,48.10
2018-07-14T08:11:02.996Z,47.20
2018-07-14T08:13:31.334Z,47.30
2018-07-14T08:15:59.767Z,47.10
2018-07-14T08:18:28.094Z,47.10
2018-07-14T08:20:56.425Z,46.20
2018-07-14T08:23:24.755Z,46.70
2018-07-14T08:25:53.069Z,46.90
2018-07-14T08:28:21.415Z,47.50
2018-07-14T08:30:49.720Z,47.20
2018-07-14T08:33:18.260Z,46.40
2018-07-14T08:35:46.585Z,46.60
2018-07-14T08:38:14.929Z,46.40
2018-07-14T08:43:11.882Z,45.20
2018-07-14T08:45:40.205Z,44.70
2018-07-14T08:48:08.535Z,44.60
2018-07-14T08:50:36.891Z,44.30
2018-07-14T08:53:05.264Z,44.10
2018-07-14T08:55:33.570Z,44.20
2018-07-14T08:58:01.824Z,44.60
2018-07-14T09:00:30.128Z,44.70
2018-07-14T09:02:58.448Z,45.20
2018-07-14T09:05:26.823Z,44.90
2018-07-14T09:07:55.197Z,44.30
2018-07-14T09:10:23.519Z,44.70
2018-07-14T09:12:51.947Z,44.90
2018-07-14T09:15:20.255Z,44.90
2018-07-14T09:17:48.659Z,44.10
2018-07-14T09:20:17.618Z,42.70
2018-07-14T09:22:45.930Z,42.60
2018-07-14T09:25:14.209Z,41.60
2018-07-14T09:27:42.908Z,42.20
2018-07-14T09:30:11.315Z,42.00
2018-07-14T09:32:39.782Z,41.40
2018-07-14T09:35:08.064Z,40.30
2018-07-14T09:37:36.344Z,39.80
2018-07-14T09:40:05.907Z,39.90
2018-07-14T09:42:34.297Z,38.90
2018-07-14T09:45:02.628Z,38.50
2018-07-14T09:47:30.952Z,38.00
2018-07-14T09:49:59.776Z,37.70
2018-07-14T09:52:28.141Z,37.00
2018-07-14T09:54:56.539Z,36.30
2018-07-14T09:57:24.903Z,35.10
2018-07-14T09:59:53.196Z,35.50
2018-07-14T10:02:21.459Z,34.60
2018-07-14T10:04:49.798Z,34.00
2018-07-14T10:07:18.175Z,33.90
2018-07-14T10:09:46.467Z,34.10
2018-07-14T10:12:14.804Z,34.10
2018-07-14T10:14:43.121Z,34.70
2018-07-14T10:17:11.452Z,35.30
2018-07-14T10:19:39.919Z,35.40
2018-07-14T10:22:08.826Z,36.10
2018-07-14T10:24:37.123Z,36.90
2018-07-14T10:27:05.466Z,37.30
2018-07-14T10:29:34.016Z,37.40
2018-07-14T10:32:02.366Z,37.30
2018-07-14T10:34:30.666Z,37.40
2018-07-14T10:36:58.963Z,37.90
2018-07-14T10:39:27.339Z,38.40
2018-07-14T10:44:23.816Z,39.30
2018-07-14T10:46:52.374Z,39.30
2018-07-14T10:49:20.607Z,39.40
2018-07-14T10:51:49.054Z,39.30
2018-07-14T10:54:17.520Z,39.10
2018-07-14T10:56:45.861Z,39.10
2018-07-14T10:59:14.246Z,38.90
2018-07-14T11:01:42.597Z,39.00
2018-07-14T11:04:10.886Z,39.10
2018-07-14T11:06:39.479Z,39.20
2018-07-14T11:09:08.132Z,39.10
2018-07-14T11:11:36.485Z,39.00
2018-07-14T11:14:04.834Z,39.20
2018-07-14T11:16:33.156Z,40.10
2018-07-14T11:19:01.560Z,39.90
2018-07-14T11:21:29.926Z,41.10
2018-07-14T11:23:58.327Z,40.20
2018-07-14T11:26:26.722Z,40.30
2018-07-14T11:28:55.507Z,40.00
2018-07-14T11:31:23.894Z,39.80
2018-07-14T11:33:52.327Z,39.40
2018-07-14T11:36:21.342Z,39.60
2018-07-14T11:38:50.205Z,39.70
2018-07-14T11:41:18.574Z,39.30
2018-07-14T11:43:46.944Z,39.50
2018-07-14T11:46:15.388Z,39.80
2018-07-14T11:48:43.857Z,40.30
2018-07-14T11:51:12.098Z,39.60
2018-07-14T11:53:40.521Z,39.60
2018-07-14T11:56:08.875Z,39.90
2018-07-14T11:58:37.267Z,39.30
2018-07-14T12:01:05.702Z,39.60
2018-07-14T12:03:34.003Z,39.10
2018-07-14T12:06:02.298Z,39.20
2018-07-14T12:08:30.711Z,38.90
2018-07-14T12:10:59.118Z,38.70
2018-07-14T12:13:28.285Z,38.60
2018-07-14T12:15:56.566Z,39.30
2018-07-14T12:18:24.939Z,38.90
2018-07-14T12:20:53.210Z,39.10
2018-07-14T12:23:21.731Z,38.70
2018-07-14T12:25:50.055Z,38.50
2018-07-14T12:28:18.850Z,38.20
2018-07-14T12:30:47.165Z,39.00
2018-07-14T12:33:15.546Z,38.80
2018-07-14T12:35:43.885Z,38.30
2018-07-14T12:38:12.251Z,38.40
2018-07-14T12:40:40.636Z,38.70
2018-07-14T12:43:08.928Z,38.90
2018-07-14T12:45:37.212Z,38.70
2018-07-14T12:48:05.919Z,39.00
2018-07-14T12:50:34.268Z,38.80
2018-07-14T12:53:02.684Z,39.60
2018-07-14T12:55:31.067Z,39.50
2018-07-14T12:57:59.343Z,39.60
2018-07-14T13:00:27.767Z,39.50
2018-07-14T13:02:56.183Z,39.50
2018-07-14T13:05:26.265Z,39.70
2018-07-14T13:07:54.597Z,40.30
2018-07-14T13:10:22.919Z,40.40
2018-07-14T13:12:51.305Z,40.20
2018-07-14T13:15:19.712Z,39.90
2018-07-14T13:17:48.013Z,40.30
2018-07-14T13:20:16.309Z,40.00
2018-07-14T13:22:44.679Z,40.20
2018-07-14T13:25:13.473Z,39.90
2018-07-14T13:27:41.826Z,39.40
2018-07-14T13:30:10.177Z,39.00
2018-07-14T13:35:07.572Z,38.80
2018-07-14T13:37:36.108Z,38.90
2018-07-14T13:40:04.563Z,39.50
2018-07-14T13:42:33.368Z,39.50
2018-07-14T13:45:01.685Z,39.20
2018-07-14T13:47:29.931Z,39.30
2018-07-14T13:49:58.359Z,38.70
2018-07-14T13:52:26.894Z,39.60
2018-07-14T13:54:55.235Z,39.50
2018-07-14T13:57:23.656Z,38.80
2018-07-14T13:59:51.989Z,38.80
2018-07-14T14:02:20.408Z,39.10
2018-07-14T14:04:48.703Z,39.30
2018-07-14T14:07:17.043Z,39.10
2018-07-14T14:09:45.730Z,38.90
2018-07-14T14:12:14.061Z,39.70
2018-07-14T14:14:42.525Z,40.00
2018-07-14T14:17:10.832Z,38.80
2018-07-14T14:19:39.100Z,38.50
2018-07-14T14:22:07.443Z,39.00
2018-07-14T14:24:35.812Z,38.60
2018-07-14T14:27:04.326Z,39.30
2018-07-14T14:32:00.734Z,40.00
2018-07-14T14:34:29.749Z,40.60
2018-07-14T14:36:58.540Z,39.90
2018-07-14T14:39:26.933Z,39.80
2018-07-14T14:41:55.904Z,40.40
2018-07-14T14:44:24.554Z,40.70
2018-07-14T14:46:52.982Z,40.80
2018-07-14T14:49:21.326Z,40.40
2018-07-14T14:51:49.744Z,40.20
2018-07-14T14:54:18.101Z,40.00
2018-07-14T14:56:46.460Z,39.50
2018-07-14T15:01:42.765Z,39.90
2018-07-14T15:04:11.181Z,39.80
2018-07-14T15:06:39.501Z,39.60
2018-07-14T15:09:08.070Z,40.10
2018-07-14T15:11:36.586Z,39.60
2018-07-14T15:14:05.624Z,39.80
2018-07-14T15:16:34.014Z,39.50
2018-07-14T15:19:02.439Z,39.90
2018-07-14T15:21:30.989Z,39.90
2018-07-14T15:23:59.665Z,40.00
2018-07-14T15:26:28.055Z,40.60
2018-07-14T15:28:56.527Z,40.50
2018-07-14T15:31:25.027Z,38.60
2018-07-14T15:33:53.589Z,38.40
2018-07-14T15:36:22.927Z,38.40
2018-07-14T15:38:51.361Z,38.00
2018-07-14T15:41:20.066Z,39.30
2018-07-14T15:43:48.527Z,38.50
2018-07-14T15:46:16.934Z,37.90
2018-07-14T15:48:45.191Z,38.40
2018-07-14T15:51:13.481Z,38.50
2018-07-14T15:53:41.923Z,38.50
2018-07-14T15:56:10.241Z,38.00
2018-07-14T15:58:38.525Z,37.40
2018-07-14T16:01:06.967Z,37.70
2018-07-14T16:03:35.262Z,37.80
2018-07-14T16:06:03.581Z,37.30
2018-07-14T16:08:31.845Z,37.10
2018-07-14T16:11:00.248Z,36.80
2018-07-14T16:13:28.535Z,37.30
2018-07-14T16:15:56.813Z,37.60
2018-07-14T16:18:26.276Z,37.50
2018-07-14T16:20:54.657Z,37.60
2018-07-14T16:23:22.800Z,37.60
2018-07-14T16:25:51.142Z,38.20
2018-07-14T16:28:19.467Z,37.90
2018-07-14T16:30:47.727Z,38.20
2018-07-14T16:33:16.153Z,37.60
2018-07-14T16:35:44.931Z,37.50
2018-07-14T16:38:13.221Z,37.30
2018-07-14T16:40:41.534Z,37.20
2018-07-14T16:43:09.921Z,37.30
2018-07-14T16:45:38.275Z,37.70
2018-07-14T16:48:06.656Z,37.40
2018-07-14T16:50:35.036Z,37.40
2018-07-14T16:53:03.431Z,36.70
2018-07-14T16:55:31.819Z,36.90
2018-07-14T16:58:00.119Z,37.20
2018-07-14T17:00:28.487Z,37.80
2018-07-14T17:02:56.822Z,37.60
2018-07-14T17:05:25.164Z,37.70
2018-07-14T17:07:53.502Z,37.30
2018-07-14T17:10:21.820Z,37.40
2018-07-14T17:12:50.235Z,37.60
2018-07-14T17:15:18.546Z,36.90
2018-07-14T17:17:46.846Z,37.00
2018-07-14T17:20:15.334Z,37.40
2018-07-14T17:22:43.556Z,37.20
2018-07-14T17:25:11.853Z,37.80
2018-07-14T17:27:40.797Z,37.60
2018-07-14T17:30:09.151Z,37.60
2018-07-14T17:32:37.547Z,37.80
2018-07-14T17:35:05.966Z,37.60
2018-07-14T17:37:34.370Z,37.40
2018-07-14T17:40:02.715Z,37.30
2018-07-14T17:42:31.104Z,37.70
2018-07-14T17:44:59.550Z,37.80
2018-07-14T17:47:27.947Z,37.90
2018-07-14T17:49:56.241Z,38.30
2018-07-14T17:52:24.653Z,38.30
2018-07-14T17:54:52.908Z,38.30
2018-07-14T17:57:21.238Z,38.40
2018-07-14T17:59:49.594Z,38.60
2018-07-14T18:02:18.098Z,38.80
2018-07-14T18:04:46.382Z,39.30
2018-07-14T18:07:14.746Z,39.40
2018-07-14T18:09:43.090Z,39.40
2018-07-14T18:12:11.361Z,40.10
2018-07-14T18:14:40.363Z,40.60
2018-07-14T18:17:08.610Z,40.80
2018-07-14T18:19:36.942Z,41.20
2018-07-14T18:22:05.281Z,41.10
2018-07-14T18:24:33.620Z,41.20
2018-07-14T18:27:01.875Z,42.00
2018-07-14T18:29:30.288Z,42.00
2018-07-14T18:31:58.585Z,41.60
2018-07-14T18:34:27.062Z,42.10
2018-07-14T18:36:55.425Z,42.50
2018-07-14T18:39:23.588Z,42.30
2018-07-14T18:41:52.076Z,42.50
2018-07-14T18:44:20.417Z,41.80
2018-07-14T18:46:48.797Z,41.90
2018-07-14T18:49:17.398Z,41.70
2018-07-14T18:51:45.875Z,42.00
2018-07-14T18:54:14.233Z,41.80
2018-07-14T18:56:42.534Z,42.20
2018-07-14T18:59:10.913Z,42.10
2018-07-14T19:01:39.590Z,42.30
2018-07-14T19:04:07.936Z,42.00
2018-07-14T19:09:04.931Z,42.70
2018-07-14T19:11:33.244Z,42.70
2018-07-14T19:14:01.626Z,43.00
2018-07-14T19:16:31.685Z,43.10
2018-07-14T19:19:00.897Z,42.90
2018-07-14T19:21:29.614Z,42.60
2018-07-14T19:23:58.730Z,42.90
2018-07-14T19:26:27.099Z,43.00
2018-07-14T19:28:55.417Z,43.10
2018-07-14T19:31:23.698Z,43.30
2018-07-14T19:33:52.066Z,43.40
2018-07-14T19:36:20.439Z,43.30
2018-07-14T19:38:48.743Z,43.00
2018-07-14T19:41:17.047Z,42.90
2018-07-14T19:43:45.444Z,42.80
2018-07-14T19:46:13.684Z,43.00
2018-07-14T19:48:42.983Z,43.50
2018-07-14T19:51:11.317Z,43.20
2018-07-14T19:53:39.584Z,43.50
2018-07-14T19:56:08.209Z,43.90
2018-07-14T19:58:36.606Z,44.00
2018-07-14T20:01:04.903Z,44.10
2018-07-14T20:03:33.324Z,44.40
2018-07-14T20:06:01.671Z,44.90
2018-07-14T20:08:30.123Z,45.20
2018-07-14T20:10:58.561Z,45.30
2018-07-14T20:13:27.613Z,46.10
2018-07-14T20:15:55.939Z,45.80
2018-07-14T20:18:24.269Z,45.60
2018-07-14T20:20:52.546Z,46.10
2018-07-14T20:23:21.366Z,46.20
2018-07-14T20:25:49.841Z,45.80
2018-07-14T20:28:18.207Z,47.10
2018-07-14T20:30:46.533Z,46.30
2018-07-14T20:33:14.928Z,46.70
2018-07-14T20:35:43.209Z,46.30
2018-07-14T20:38:11.625Z,46.60
2018-07-14T20:40:40.971Z,46.80
2018-07-14T20:43:09.420Z,46.60
2018-07-14T20:45:37.758Z,46.90
2018-07-14T20:48:06.053Z,47.20
2018-07-14T20:50:34.432Z,47.20
2018-07-14T20:53:02.932Z,47.10
2018-07-14T20:55:31.366Z,48.10
2018-07-14T20:57:59.625Z,47.90
2018-07-14T21:00:27.959Z,48.00
2018-07-14T21:02:56.703Z,48.30
2018-07-14T21:05:25.314Z,48.50
2018-07-14T21:07:53.834Z,49.20
2018-07-14T21:10:22.104Z,49.00
2018-07-14T21:12:50.456Z,49.10
2018-07-14T21:15:18.844Z,49.30
2018-07-14T21:17:47.226Z,49.90
2018-07-14T21:20:15.609Z,49.70
2018-07-14T21:22:43.970Z,49.90
2018-07-14T21:25:12.334Z,50.20
2018-07-14T21:27:40.717Z,50.40
2018-07-14T21:30:09.045Z,50.30
2018-07-14T21:32:37.300Z,50.70
2018-07-14T21:35:05.838Z,50.80
2018-07-14T21:37:34.845Z,51.10
2018-07-14T21:40:03.314Z,51.40
2018-07-14T21:42:31.670Z,51.50
2018-07-14T21:44:59.987Z,51.80
2018-07-14T21:47:28.490Z,51.70
2018-07-14T21:49:56.770Z,51.80
2018-07-14T21:52:25.168Z,52.20
2018-07-14T21:54:53.527Z,52.50
2018-07-14T21:57:21.919Z,52.50
2018-07-14T21:59:50.283Z,52.60
2018-07-14T22:02:18.655Z,52.70
2018-07-14T22:04:46.990Z,52.90
2018-07-14T22:07:15.400Z,53.10
2018-07-14T22:12:11.954Z,53.20
2018-07-14T22:14:40.119Z,53.20
2018-07-14T22:17:08.465Z,53.20
2018-07-14T22:19:36.826Z,53.50
2018-07-14T22:22:05.252Z,53.70
2018-07-14T22:24:33.631Z,53.70
2018-07-14T22:27:04.027Z,53.70
2018-07-14T22:29:33.039Z,53.80
2018-07-14T22:32:06.690Z,53.80
2018-07-14T22:34:35.394Z,53.80
2018-07-14T22:37:03.742Z,54.20
2018-07-14T22:39:32.850Z,54.50
2018-07-14T22:42:01.213Z,54.50
2018-07-14T22:44:29.590Z,54.60
2018-07-14T22:46:57.959Z,54.70
2018-07-14T22:49:26.258Z,54.90
2018-07-14T22:51:54.561Z,55.30
2018-07-14T22:54:22.920Z,55.30
2018-07-14T22:56:51.255Z,55.30
2018-07-14T22:59:19.705Z,55.30
2018-07-14T23:01:48.013Z,55.40
2018-07-14T23:04:17.051Z,55.50
2018-07-14T23:06:46.105Z,55.80
2018-07-14T23:09:14.430Z,55.70
2018-07-14T23:11:42.757Z,55.60
2018-07-14T23:14:14.406Z,55.40
2018-07-14T23:16:43.383Z,55.20
2018-07-14T23:19:11.729Z,55.10
2018-07-14T23:21:40.085Z,55.20
2018-07-14T23:24:08.537Z,55.60
2018-07-14T23:26:36.864Z,55.80
2018-07-14T23:29:05.185Z,55.90
2018-07-14T23:31:33.633Z,56.10
2018-07-14T23:34:02.017Z,56.30
2018-07-14T23:36:30.524Z,56.70
2018-07-14T23:38:59.170Z,56.70
2018-07-14T23:41:28.120Z,56.70
2018-07-14T23:43:56.553Z,57.10
2018-07-14T23:46:24.945Z,57.20
2018-07-14T23:48:53.377Z,57.30
2018-07-14T23:51:22.155Z,57.40
2018-07-14T23:53:50.732Z,57.70
2018-07-14T23:56:19.340Z,58.00
2018-07-14T23:58:48.200Z,58.00
